Terminal Aerodrome Forecast
Issued by NWS Cleveland, OH

Home | Current Version | Previous Version | Graphics & Text | Print | Product List | Glossary On
Versions: 1 2 3 4 5 6 7 8 9 10 11 12 13 14 15 16
000
FTUS41 KCLE 302333
TAFERI
TAF
KERI 302333Z 0100/0124 30010KT 6SM -SHRA VCTS BKN050CB OVC080
      TEMPO 0100/0101 5SM -TSRA BKN050CB
     FM010200 20005KT P6SM VCSH BKN040
     FM010900 21007KT P6SM BKN030
     FM011200 25008KT P6SM OVC015
     FM011800 27010G20KT P6SM BKN040=

USA.gov is the U.S. government's official web portal to all federal, state and local government web resources and services.